createdAt,value
2022-08-18T00:01:16.829Z,21.10
2022-08-18T00:06:21.842Z,21.13
2022-08-18T00:11:25.100Z,21.00
2022-08-18T00:16:29.309Z,21.00
2022-08-18T00:21:32.258Z,21.09
2022-08-18T00:26:37.073Z,21.04
2022-08-18T00:31:41.654Z,21.03
2022-08-18T00:36:44.516Z,21.04
2022-08-18T00:41:47.423Z,21.08
2022-08-18T00:46:51.810Z,21.11
2022-08-18T00:51:55.493Z,21.11
2022-08-18T00:57:01.361Z,21.08
2022-08-18T01:02:10.384Z,21.01
2022-08-18T01:07:20.510Z,21.06
2022-08-18T01:12:45.837Z,21.08
2022-08-18T01:18:05.802Z,21.00
2022-08-18T01:23:14.188Z,20.95
2022-08-18T01:28:19.431Z,20.97
2022-08-18T01:33:22.294Z,21.03
2022-08-18T01:38:34.454Z,21.04
2022-08-18T01:43:38.109Z,21.01
2022-08-18T01:48:43.159Z,20.97
2022-08-18T01:53:48.651Z,20.94
2022-08-18T01:58:51.453Z,20.79
2022-08-18T02:04:23.465Z,20.70
2022-08-18T02:09:25.310Z,20.64
2022-08-18T02:14:28.235Z,20.78
2022-08-18T02:19:35.996Z,20.82
2022-08-18T02:24:40.915Z,20.83
2022-08-18T02:29:43.822Z,20.83
2022-08-18T02:34:46.676Z,20.80
2022-08-18T02:39:51.143Z,20.82
2022-08-18T02:44:54.365Z,20.77
2022-08-18T02:49:57.288Z,20.78
2022-08-18T02:55:02.274Z,20.80
2022-08-18T03:00:05.959Z,20.81
2022-08-18T03:05:10.844Z,20.80
2022-08-18T03:10:33.307Z,20.73
2022-08-18T03:15:36.821Z,20.69
2022-08-18T03:20:40.218Z,20.76
2022-08-18T03:25:47.613Z,20.70
2022-08-18T03:30:50.566Z,20.64
2022-08-18T03:35:53.504Z,20.57
2022-08-18T03:40:57.700Z,20.54
2022-08-18T03:46:02.383Z,20.55
2022-08-18T03:51:06.763Z,20.49
2022-08-18T03:56:16.081Z,20.43
2022-08-18T04:01:26.517Z,20.49
2022-08-18T04:06:33.382Z,20.58
2022-08-18T04:11:43.105Z,20.53
2022-08-18T04:16:49.003Z,20.48
2022-08-18T04:21:54.254Z,20.53
2022-08-18T04:26:59.672Z,20.56
2022-08-18T04:32:04.915Z,20.69
2022-08-18T04:37:09.616Z,20.79
2022-08-18T04:42:14.053Z,20.87
2022-08-18T04:47:17.303Z,20.99
2022-08-18T04:52:41.554Z,21.04
2022-08-18T04:57:46.289Z,21.25
2022-08-18T05:02:49.517Z,21.29
2022-08-18T05:07:52.604Z,21.18
2022-08-18T05:12:57.519Z,21.26
2022-08-18T05:18:00.374Z,21.00
2022-08-18T05:23:03.940Z,21.25
2022-08-18T05:28:09.864Z,21.26
2022-08-18T05:33:12.697Z,21.22
2022-08-18T05:38:26.881Z,21.61
2022-08-18T05:43:31.619Z,21.87
2022-08-18T05:48:39.832Z,21.93
2022-08-18T05:54:04.320Z,21.55
2022-08-18T05:59:09.574Z,22.03
2022-08-18T06:04:21.273Z,21.67
2022-08-18T06:09:29.695Z,21.66
2022-08-18T06:14:33.928Z,21.72
2022-08-18T06:19:49.864Z,21.41
2022-08-18T06:25:01.974Z,21.15
2022-08-18T06:30:12.644Z,21.41
2022-08-18T06:35:24.661Z,21.53
2022-08-18T06:40:28.030Z,21.60
2022-08-18T06:45:39.890Z,21.85
2022-08-18T06:50:51.350Z,21.38
2022-08-18T06:55:54.194Z,21.58
2022-08-18T07:01:02.446Z,21.30
2022-08-18T07:06:07.882Z,21.14
2022-08-18T07:11:14.794Z,21.26
2022-08-18T07:16:46.940Z,21.48
2022-08-18T07:21:48.435Z,21.28
2022-08-18T07:27:02.534Z,21.71
2022-08-18T07:32:20.924Z,21.23
2022-08-18T07:37:30.506Z,21.46
2022-08-18T07:42:54.252Z,20.99
2022-08-18T07:48:15.749Z,20.83
2022-08-18T07:53:38.309Z,21.25
2022-08-18T07:58:48.991Z,21.13
2022-08-18T08:04:01.750Z,21.22
2022-08-18T08:09:13.772Z,21.47
2022-08-18T08:14:31.352Z,21.49
2022-08-18T08:20:00.607Z,22.37
2022-08-18T08:25:28.304Z,23.14
2022-08-18T08:30:37.056Z,23.77
2022-08-18T08:35:52.855Z,23.12
2022-08-18T08:41:03.201Z,23.47
2022-08-18T08:46:11.515Z,24.45
2022-08-18T08:51:30.566Z,24.07
2022-08-18T08:56:40.142Z,24.29
2022-08-18T09:01:52.842Z,24.50
2022-08-18T09:07:10.582Z,23.97
2022-08-18T09:12:26.014Z,24.42
2022-08-18T09:17:54.268Z,24.21
2022-08-18T09:23:06.932Z,23.87
2022-08-18T09:28:13.052Z,24.17
2022-08-18T09:33:49.744Z,25.30
2022-08-18T09:39:20.550Z,25.14
2022-08-18T09:45:02.027Z,25.28
2022-08-18T09:50:38.584Z,25.79
2022-08-18T09:56:01.345Z,25.64
2022-08-18T10:01:39.901Z,26.44
2022-08-18T10:06:44.128Z,25.53
2022-08-18T10:12:16.321Z,25.61
2022-08-18T10:17:36.783Z,25.13
2022-08-18T10:22:44.244Z,26.41
2022-08-18T10:27:53.814Z,25.83
2022-08-18T10:32:58.014Z,26.05
2022-08-18T10:38:03.838Z,25.83
2022-08-18T10:43:45.198Z,25.20
2022-08-18T10:48:35.762Z,26.15
2022-08-18T10:53:49.746Z,27.21
2022-08-18T10:59:16.211Z,26.44
2022-08-18T11:04:33.512Z,26.35
2022-08-18T11:09:41.725Z,26.98
2022-08-18T11:15:22.841Z,26.84
2022-08-18T11:25:38.489Z,26.67
2022-08-18T11:30:46.635Z,26.89
2022-08-18T11:35:52.792Z,26.48
2022-08-18T11:46:40.835Z,26.68
2022-08-18T11:52:02.228Z,26.60
2022-08-18T11:57:32.366Z,27.06
2022-08-18T12:02:38.597Z,27.08
2022-08-18T12:07:49.623Z,27.73
2022-08-18T12:13:01.214Z,27.20
2022-08-18T12:18:06.342Z,27.24
2022-08-18T12:23:09.173Z,27.51
2022-08-18T12:28:12.022Z,27.43
2022-08-18T12:33:16.879Z,28.33
2022-08-18T12:38:28.249Z,27.90
2022-08-18T12:43:32.521Z,27.77
2022-08-18T12:48:39.498Z,27.46
2022-08-18T12:53:57.993Z,27.02
2022-08-18T12:59:06.729Z,26.49
2022-08-18T13:04:13.872Z,26.88
2022-08-18T13:09:35.238Z,26.61
2022-08-18T13:14:40.130Z,26.76
2022-08-18T13:19:48.206Z,26.97
2022-08-18T13:24:52.707Z,27.03
2022-08-18T13:29:56.170Z,27.52
2022-08-18T13:35:00.358Z,27.59
2022-08-18T13:40:07.215Z,27.28
2022-08-18T13:45:24.555Z,27.39
2022-08-18T13:50:30.135Z,27.57
2022-08-18T13:55:33.063Z,27.60
2022-08-18T14:00:36.324Z,27.74
2022-08-18T14:05:51.504Z,27.83
2022-08-18T14:10:59.197Z,27.68
2022-08-18T14:16:02.105Z,27.99
2022-08-18T14:21:24.801Z,27.65
2022-08-18T14:26:45.295Z,28.00
2022-08-18T14:31:48.903Z,27.49
2022-08-18T14:36:56.629Z,27.81
2022-08-18T14:41:59.777Z,28.13
2022-08-18T14:47:06.560Z,27.99
2022-08-18T14:52:13.957Z,28.66
2022-08-18T14:57:18.203Z,27.82
2022-08-18T15:02:28.835Z,27.31
2022-08-18T15:07:33.627Z,27.82
2022-08-18T15:12:37.491Z,27.96
2022-08-18T15:17:42.027Z,27.45
2022-08-18T15:23:05.112Z,26.98
2022-08-18T15:28:08.356Z,26.89
2022-08-18T15:33:25.300Z,26.06
2022-08-18T15:38:35.569Z,26.14
2022-08-18T15:43:45.941Z,25.95
2022-08-18T15:48:49.666Z,25.67
2022-08-18T15:53:56.389Z,25.27
2022-08-18T15:59:04.302Z,25.46
2022-08-18T16:09:18.408Z,25.16
2022-08-18T16:14:21.243Z,25.10
2022-08-18T16:19:25.795Z,25.10
2022-08-18T16:24:34.695Z,25.06
2022-08-18T16:29:37.999Z,25.00
2022-08-18T16:34:41.417Z,24.95
2022-08-18T16:39:45.702Z,24.91
2022-08-18T16:44:48.740Z,24.81
2022-08-18T16:49:52.388Z,24.94
2022-08-18T16:55:03.448Z,24.76
2022-08-18T17:00:25.314Z,24.83
2022-08-18T17:05:28.243Z,24.68
2022-08-18T17:10:37.889Z,24.30
2022-08-18T17:15:40.820Z,23.83
2022-08-18T17:20:43.844Z,23.96
2022-08-18T17:25:48.862Z,23.87
2022-08-18T17:30:53.674Z,23.69
2022-08-18T17:36:00.622Z,23.68
2022-08-18T17:41:06.173Z,23.90
2022-08-18T17:46:13.738Z,24.04
2022-08-18T17:51:37.324Z,23.81
2022-08-18T17:56:52.542Z,23.64
2022-08-18T18:02:16.582Z,23.33
2022-08-18T18:07:34.838Z,23.20
2022-08-18T18:12:40.136Z,23.12
2022-08-18T18:17:54.633Z,22.93
2022-08-18T18:23:17.754Z,22.75
2022-08-18T18:28:31.978Z,22.87
2022-08-18T18:33:36.301Z,22.64
2022-08-18T18:38:46.068Z,22.42
2022-08-18T18:43:52.646Z,22.30
2022-08-18T18:49:07.511Z,22.01
2022-08-18T18:54:23.299Z,21.63
2022-08-18T18:59:48.897Z,21.56
2022-08-18T19:04:57.767Z,21.36
2022-08-18T19:10:07.240Z,21.41
2022-08-18T19:15:15.135Z,21.16
2022-08-18T19:20:20.910Z,21.13
2022-08-18T19:25:27.722Z,21.08
2022-08-18T19:30:35.430Z,20.98
2022-08-18T19:35:42.979Z,20.96
2022-08-18T19:40:51.212Z,20.94
2022-08-18T19:46:02.860Z,20.81
2022-08-18T19:51:19.855Z,20.71
2022-08-18T19:56:43.587Z,20.71
2022-08-18T20:01:59.145Z,20.77
2022-08-18T20:07:20.508Z,20.72
2022-08-18T20:12:45.196Z,20.65
2022-08-18T20:18:21.551Z,20.62
2022-08-18T20:23:34.172Z,20.42
2022-08-18T20:28:40.489Z,20.35
2022-08-18T20:34:03.939Z,20.26
2022-08-18T20:39:32.339Z,20.25
2022-08-18T20:44:49.882Z,20.14
2022-08-18T20:50:16.045Z,20.19
2022-08-18T20:55:27.367Z,20.12
2022-08-18T21:00:35.851Z,20.09
2022-08-18T21:05:41.912Z,20.02
2022-08-18T21:10:50.834Z,19.99
2022-08-18T21:15:54.654Z,19.95
2022-08-18T21:21:00.718Z,19.90
2022-08-18T21:26:11.248Z,19.97
2022-08-18T21:31:41.705Z,19.98
2022-08-18T21:36:54.690Z,19.94
2022-08-18T21:41:59.453Z,19.95
2022-08-18T21:47:09.401Z,19.98
2022-08-18T21:52:24.047Z,19.75
2022-08-18T21:57:28.794Z,19.93
2022-08-18T22:02:32.236Z,19.96
2022-08-18T22:07:36.585Z,20.01
2022-08-18T22:13:01.865Z,19.80
2022-08-18T22:18:07.199Z,19.98
2022-08-18T22:23:45.768Z,20.06
2022-08-18T22:28:56.144Z,20.00
2022-08-18T22:34:04.612Z,19.90
2022-08-18T22:39:12.443Z,19.98
2022-08-18T22:44:15.270Z,19.91
2022-08-18T22:49:18.601Z,19.94
2022-08-18T22:54:25.360Z,20.01
2022-08-18T22:59:28.292Z,19.96
2022-08-18T23:04:31.386Z,20.03
2022-08-18T23:09:36.332Z,20.23
2022-08-18T23:14:39.316Z,20.08
2022-08-18T23:19:42.703Z,20.06
2022-08-18T23:24:48.605Z,20.11
2022-08-18T23:29:52.383Z,20.21
2022-08-18T23:34:55.748Z,20.12
2022-08-18T23:40:00.074Z,20.08
2022-08-18T23:45:04.700Z,20.13
2022-08-18T23:50:08.467Z,20.12
2022-08-18T23:55:15.595Z,20.16
